sensor_id;sensor_type;location;lat;lon;timestamp;temperature;humidity
17565;DHT22;62994;52.126;5.596;2023-07-22T00:02:31;18.00;99.90
17565;DHT22;62994;52.126;5.596;2023-07-22T00:05:04;18.00;99.90
17565;DHT22;62994;52.126;5.596;2023-07-22T00:07:31;17.90;99.90
17565;DHT22;62994;52.126;5.596;2023-07-22T00:10:02;17.90;99.90
17565;DHT22;62994;52.126;5.596;2023-07-22T00:12:30;17.90;99.90
17565;DHT22;62994;52.126;5.596;2023-07-22T00:15:02;17.90;99.90
17565;DHT22;62994;52.126;5.596;2023-07-22T00:17:29;17.90;99.90
17565;DHT22;62994;52.126;5.596;2023-07-22T00:19:56;17.80;99.90
17565;DHT22;62994;52.126;5.596;2023-07-22T00:22:31;17.80;99.90
17565;DHT22;62994;52.126;5.596;2023-07-22T00:25:00;17.70;99.90
17565;DHT22;62994;52.126;5.596;2023-07-22T00:27:33;17.70;99.90
17565;DHT22;62994;52.126;5.596;2023-07-22T00:30:02;17.70;99.90
17565;DHT22;62994;52.126;5.596;2023-07-22T00:32:29;17.60;99.90
17565;DHT22;62994;52.126;5.596;2023-07-22T00:34:56;17.60;99.90
17565;DHT22;62994;52.126;5.596;2023-07-22T00:37:23;17.60;99.90
17565;DHT22;62994;52.126;5.596;2023-07-22T00:39:53;17.60;99.90
17565;DHT22;62994;52.126;5.596;2023-07-22T00:42:21;17.50;99.90
17565;DHT22;62994;52.126;5.596;2023-07-22T00:44:49;17.50;99.90
17565;DHT22;62994;52.126;5.596;2023-07-22T00:47:17;17.50;99.90
17565;DHT22;62994;52.126;5.596;2023-07-22T00:49:47;17.50;99.90
17565;DHT22;62994;52.126;5.596;2023-07-22T00:52:16;17.50;99.90
17565;DHT22;62994;52.126;5.596;2023-07-22T00:54:44;17.50;99.90
17565;DHT22;62994;52.126;5.596;2023-07-22T00:57:13;17.50;99.90
17565;DHT22;62994;52.126;5.596;2023-07-22T00:59:40;17.50;99.90
17565;DHT22;62994;52.126;5.596;2023-07-22T01:02:07;17.50;99.90
17565;DHT22;62994;52.126;5.596;2023-07-22T01:04:35;17.50;99.90
17565;DHT22;62994;52.126;5.596;2023-07-22T01:07:05;17.50;99.90
17565;DHT22;62994;52.126;5.596;2023-07-22T01:09:37;17.40;99.90
17565;DHT22;62994;52.126;5.596;2023-07-22T01:12:04;17.40;99.90
17565;DHT22;62994;52.126;5.596;2023-07-22T01:14:34;17.40;99.90
17565;DHT22;62994;52.126;5.596;2023-07-22T01:17:02;17.40;99.90
17565;DHT22;62994;52.126;5.596;2023-07-22T01:19:29;17.40;99.90
17565;DHT22;62994;52.126;5.596;2023-07-22T01:21:57;17.30;99.90
17565;DHT22;62994;52.126;5.596;2023-07-22T01:24:28;17.30;99.90
17565;DHT22;62994;52.126;5.596;2023-07-22T01:26:57;17.30;99.90
17565;DHT22;62994;52.126;5.596;2023-07-22T01:29:25;17.30;99.90
17565;DHT22;62994;52.126;5.596;2023-07-22T01:31:53;17.30;99.90
17565;DHT22;62994;52.126;5.596;2023-07-22T01:34:21;17.30;99.90
17565;DHT22;62994;52.126;5.596;2023-07-22T01:36:54;17.20;99.90
17565;DHT22;62994;52.126;5.596;2023-07-22T01:39:21;17.20;99.90
17565;DHT22;62994;52.126;5.596;2023-07-22T01:41:50;17.20;99.90
17565;DHT22;62994;52.126;5.596;2023-07-22T01:44:17;17.20;99.90
17565;DHT22;62994;52.126;5.596;2023-07-22T01:46:46;17.20;99.90
17565;DHT22;62994;52.126;5.596;2023-07-22T01:49:13;17.20;99.90
17565;DHT22;62994;52.126;5.596;2023-07-22T01:51:40;17.20;99.90
17565;DHT22;62994;52.126;5.596;2023-07-22T01:54:07;17.10;99.90
17565;DHT22;62994;52.126;5.596;2023-07-22T01:56:37;17.10;99.90
17565;DHT22;62994;52.126;5.596;2023-07-22T01:59:08;17.10;99.90
17565;DHT22;62994;52.126;5.596;2023-07-22T02:01:35;17.10;99.90
17565;DHT22;62994;52.126;5.596;2023-07-22T02:04:02;17.10;99.90
17565;DHT22;62994;52.126;5.596;2023-07-22T02:06:30;17.10;99.90
17565;DHT22;62994;52.126;5.596;2023-07-22T02:08:57;17.10;99.90
17565;DHT22;62994;52.126;5.596;2023-07-22T02:11:24;17.00;99.90
17565;DHT22;62994;52.126;5.596;2023-07-22T02:13:51;17.00;99.90
17565;DHT22;62994;52.126;5.596;2023-07-22T02:16:19;17.00;99.90
17565;DHT22;62994;52.126;5.596;2023-07-22T02:18:46;17.00;99.90
17565;DHT22;62994;52.126;5.596;2023-07-22T02:21:14;17.00;99.90
17565;DHT22;62994;52.126;5.596;2023-07-22T02:23:41;17.00;99.90
17565;DHT22;62994;52.126;5.596;2023-07-22T02:26:08;17.10;99.90
17565;DHT22;62994;52.126;5.596;2023-07-22T02:28:35;17.10;99.90
17565;DHT22;62994;52.126;5.596;2023-07-22T02:31:03;17.00;99.90
17565;DHT22;62994;52.126;5.596;2023-07-22T02:33:34;17.10;99.90
17565;DHT22;62994;52.126;5.596;2023-07-22T02:36:01;17.10;99.90
17565;DHT22;62994;52.126;5.596;2023-07-22T02:38:28;17.10;99.90
17565;DHT22;62994;52.126;5.596;2023-07-22T02:41:02;17.10;99.90
17565;DHT22;62994;52.126;5.596;2023-07-22T02:43:31;17.00;99.90
17565;DHT22;62994;52.126;5.596;2023-07-22T02:46:00;17.00;99.90
17565;DHT22;62994;52.126;5.596;2023-07-22T02:48:35;16.90;99.90
17565;DHT22;62994;52.126;5.596;2023-07-22T02:51:04;16.90;99.90
17565;DHT22;62994;52.126;5.596;2023-07-22T02:53:36;16.80;99.90
17565;DHT22;62994;52.126;5.596;2023-07-22T02:56:07;16.80;99.90
17565;DHT22;62994;52.126;5.596;2023-07-22T02:58:36;16.80;99.90
17565;DHT22;62994;52.126;5.596;2023-07-22T03:01:03;16.80;99.90
17565;DHT22;62994;52.126;5.596;2023-07-22T03:03:36;16.70;99.90
17565;DHT22;62994;52.126;5.596;2023-07-22T03:06:31;16.70;99.90
17565;DHT22;62994;52.126;5.596;2023-07-22T03:09:04;16.60;99.90
17565;DHT22;62994;52.126;5.596;2023-07-22T03:11:35;16.60;99.90
17565;DHT22;62994;52.126;5.596;2023-07-22T03:14:05;16.50;99.90
17565;DHT22;62994;52.126;5.596;2023-07-22T03:16:48;16.50;99.90
17565;DHT22;62994;52.126;5.596;2023-07-22T03:19:24;16.50;99.90
17565;DHT22;62994;52.126;5.596;2023-07-22T03:22:14;16.50;99.90
17565;DHT22;62994;52.126;5.596;2023-07-22T03:24:52;16.50;99.90
17565;DHT22;62994;52.126;5.596;2023-07-22T03:27:26;16.40;99.90
17565;DHT22;62994;52.126;5.596;2023-07-22T03:30:07;16.40;99.90
17565;DHT22;62994;52.126;5.596;2023-07-22T03:32:45;16.40;99.90
17565;DHT22;62994;52.126;5.596;2023-07-22T03:35:16;16.40;99.90
17565;DHT22;62994;52.126;5.596;2023-07-22T03:37:47;16.40;99.90
17565;DHT22;62994;52.126;5.596;2023-07-22T03:40:14;16.40;99.90
17565;DHT22;62994;52.126;5.596;2023-07-22T03:42:53;16.40;99.90
17565;DHT22;62994;52.126;5.596;2023-07-22T03:45:31;16.40;99.90
17565;DHT22;62994;52.126;5.596;2023-07-22T03:48:13;16.40;99.90
17565;DHT22;62994;52.126;5.596;2023-07-22T03:50:45;16.40;99.90
17565;DHT22;62994;52.126;5.596;2023-07-22T03:53:14;16.40;99.90
17565;DHT22;62994;52.126;5.596;2023-07-22T03:55:43;16.40;99.90
17565;DHT22;62994;52.126;5.596;2023-07-22T03:58:16;16.40;99.90
17565;DHT22;62994;52.126;5.596;2023-07-22T04:00:49;16.40;99.90
17565;DHT22;62994;52.126;5.596;2023-07-22T04:03:18;16.40;99.90
17565;DHT22;62994;52.126;5.596;2023-07-22T04:05:57;16.40;99.90
17565;DHT22;62994;52.126;5.596;2023-07-22T04:08:32;16.40;99.90
17565;DHT22;62994;52.126;5.596;2023-07-22T04:11:04;16.40;99.90
17565;DHT22;62994;52.126;5.596;2023-07-22T04:13:42;16.40;99.90
17565;DHT22;62994;52.126;5.596;2023-07-22T04:16:14;16.30;99.90
17565;DHT22;62994;52.126;5.596;2023-07-22T04:18:47;16.30;99.90
17565;DHT22;62994;52.126;5.596;2023-07-22T04:21:22;16.30;99.90
17565;DHT22;62994;52.126;5.596;2023-07-22T04:23:57;16.30;99.90
17565;DHT22;62994;52.126;5.596;2023-07-22T04:26:30;16.30;99.90
17565;DHT22;62994;52.126;5.596;2023-07-22T04:29:03;16.30;99.90
17565;DHT22;62994;52.126;5.596;2023-07-22T04:31:41;16.30;99.90
17565;DHT22;62994;52.126;5.596;2023-07-22T04:34:16;16.30;99.90
17565;DHT22;62994;52.126;5.596;2023-07-22T04:36:50;16.30;99.90
17565;DHT22;62994;52.126;5.596;2023-07-22T04:39:22;16.30;99.90
17565;DHT22;62994;52.126;5.596;2023-07-22T04:41:53;16.40;99.90
17565;DHT22;62994;52.126;5.596;2023-07-22T04:44:21;16.50;99.90
17565;DHT22;62994;52.126;5.596;2023-07-22T04:46:51;16.50;99.90
17565;DHT22;62994;52.126;5.596;2023-07-22T04:49:32;16.50;99.90
17565;DHT22;62994;52.126;5.596;2023-07-22T04:52:05;16.40;99.90
17565;DHT22;62994;52.126;5.596;2023-07-22T04:54:47;16.40;99.90
17565;DHT22;62994;52.126;5.596;2023-07-22T04:57:27;16.40;99.90
17565;DHT22;62994;52.126;5.596;2023-07-22T04:59:55;16.40;99.90
17565;DHT22;62994;52.126;5.596;2023-07-22T05:02:28;16.40;99.90
17565;DHT22;62994;52.126;5.596;2023-07-22T05:05:03;16.40;99.90
17565;DHT22;62994;52.126;5.596;2023-07-22T05:07:41;16.30;99.90
17565;DHT22;62994;52.126;5.596;2023-07-22T05:10:09;16.40;99.90
17565;DHT22;62994;52.126;5.596;2023-07-22T05:12:48;16.40;99.90
17565;DHT22;62994;52.126;5.596;2023-07-22T05:15:25;16.40;99.90
17565;DHT22;62994;52.126;5.596;2023-07-22T05:18:01;16.40;99.90
17565;DHT22;62994;52.126;5.596;2023-07-22T05:20:35;16.40;99.90
17565;DHT22;62994;52.126;5.596;2023-07-22T05:23:12;16.40;99.90
17565;DHT22;62994;52.126;5.596;2023-07-22T05:25:58;16.50;99.90
17565;DHT22;62994;52.126;5.596;2023-07-22T05:28:29;16.50;99.90
17565;DHT22;62994;52.126;5.596;2023-07-22T05:31:02;16.50;99.90
17565;DHT22;62994;52.126;5.596;2023-07-22T05:33:42;16.50;99.90
17565;DHT22;62994;52.126;5.596;2023-07-22T05:36:18;16.50;99.90
17565;DHT22;62994;52.126;5.596;2023-07-22T05:38:53;16.60;99.90
17565;DHT22;62994;52.126;5.596;2023-07-22T05:41:22;16.50;99.90
17565;DHT22;62994;52.126;5.596;2023-07-22T05:43:55;16.50;99.90
17565;DHT22;62994;52.126;5.596;2023-07-22T05:46:42;16.60;99.90
17565;DHT22;62994;52.126;5.596;2023-07-22T05:49:23;16.60;99.90
17565;DHT22;62994;52.126;5.596;2023-07-22T05:52:04;16.60;99.90
17565;DHT22;62994;52.126;5.596;2023-07-22T05:54:38;16.70;99.90
17565;DHT22;62994;52.126;5.596;2023-07-22T05:57:12;16.70;99.90
17565;DHT22;62994;52.126;5.596;2023-07-22T05:59:45;16.70;99.90
17565;DHT22;62994;52.126;5.596;2023-07-22T06:02:19;16.80;99.90
17565;DHT22;62994;52.126;5.596;2023-07-22T06:04:47;16.80;99.90
17565;DHT22;62994;52.126;5.596;2023-07-22T06:07:22;16.80;99.90
17565;DHT22;62994;52.126;5.596;2023-07-22T06:09:55;16.90;99.90
17565;DHT22;62994;52.126;5.596;2023-07-22T06:12:28;16.90;99.90
17565;DHT22;62994;52.126;5.596;2023-07-22T06:15:01;16.90;99.90
17565;DHT22;62994;52.126;5.596;2023-07-22T06:17:32;17.00;99.90
17565;DHT22;62994;52.126;5.596;2023-07-22T06:20:01;17.00;99.90
17565;DHT22;62994;52.126;5.596;2023-07-22T06:22:38;17.00;99.90
17565;DHT22;62994;52.126;5.596;2023-07-22T06:25:09;17.10;99.90
17565;DHT22;62994;52.126;5.596;2023-07-22T06:27:41;17.10;99.90
17565;DHT22;62994;52.126;5.596;2023-07-22T06:30:19;17.10;99.90
17565;DHT22;62994;52.126;5.596;2023-07-22T06:32:51;17.10;99.90
17565;DHT22;62994;52.126;5.596;2023-07-22T06:35:31;17.20;99.90
17565;DHT22;62994;52.126;5.596;2023-07-22T06:38:01;17.10;99.90
17565;DHT22;62994;52.126;5.596;2023-07-22T06:40:39;17.10;99.90
17565;DHT22;62994;52.126;5.596;2023-07-22T06:43:06;17.10;99.90
17565;DHT22;62994;52.126;5.596;2023-07-22T06:45:42;17.20;99.90
17565;DHT22;62994;52.126;5.596;2023-07-22T06:48:17;17.30;99.90
17565;DHT22;62994;52.126;5.596;2023-07-22T06:50:55;17.40;99.90
17565;DHT22;62994;52.126;5.596;2023-07-22T06:53:26;17.40;99.90
17565;DHT22;62994;52.126;5.596;2023-07-22T06:55:57;17.50;99.90
17565;DHT22;62994;52.126;5.596;2023-07-22T06:58:29;17.60;99.90
17565;DHT22;62994;52.126;5.596;2023-07-22T07:01:02;17.80;99.90
17565;DHT22;62994;52.126;5.596;2023-07-22T07:03:36;17.90;99.90
17565;DHT22;62994;52.126;5.596;2023-07-22T07:06:16;18.00;99.90
17565;DHT22;62994;52.126;5.596;2023-07-22T07:08:58;18.10;99.90
17565;DHT22;62994;52.126;5.596;2023-07-22T07:11:36;18.20;99.90
17565;DHT22;62994;52.126;5.596;2023-07-22T07:14:07;18.30;99.90
17565;DHT22;62994;52.126;5.596;2023-07-22T07:16:38;18.40;99.90
17565;DHT22;62994;52.126;5.596;2023-07-22T07:19:15;18.50;99.90
17565;DHT22;62994;52.126;5.596;2023-07-22T07:21:52;18.60;99.90
17565;DHT22;62994;52.126;5.596;2023-07-22T07:24:31;18.70;99.90
17565;DHT22;62994;52.126;5.596;2023-07-22T07:27:04;18.80;99.90
17565;DHT22;62994;52.126;5.596;2023-07-22T07:29:33;18.90;99.90
17565;DHT22;62994;52.126;5.596;2023-07-22T07:32:05;18.90;99.90
17565;DHT22;62994;52.126;5.596;2023-07-22T07:34:33;19.00;99.90
17565;DHT22;62994;52.126;5.596;2023-07-22T07:37:07;19.00;99.90
17565;DHT22;62994;52.126;5.596;2023-07-22T07:39:34;19.10;99.90
17565;DHT22;62994;52.126;5.596;2023-07-22T07:42:08;19.20;99.90
17565;DHT22;62994;52.126;5.596;2023-07-22T07:44:38;19.20;99.90
17565;DHT22;62994;52.126;5.596;2023-07-22T07:47:21;19.30;99.90
17565;DHT22;62994;52.126;5.596;2023-07-22T07:50:06;19.40;99.90
17565;DHT22;62994;52.126;5.596;2023-07-22T07:52:54;19.40;99.90
17565;DHT22;62994;52.126;5.596;2023-07-22T07:55:29;19.40;99.90
17565;DHT22;62994;52.126;5.596;2023-07-22T07:58:05;19.50;99.90
17565;DHT22;62994;52.126;5.596;2023-07-22T08:00:39;19.50;99.90
17565;DHT22;62994;52.126;5.596;2023-07-22T08:03:06;19.70;99.90
17565;DHT22;62994;52.126;5.596;2023-07-22T08:05:34;19.70;99.90
17565;DHT22;62994;52.126;5.596;2023-07-22T08:08:04;19.80;99.90
17565;DHT22;62994;52.126;5.596;2023-07-22T08:10:35;19.90;99.90
17565;DHT22;62994;52.126;5.596;2023-07-22T08:13:08;20.00;99.90
17565;DHT22;62994;52.126;5.596;2023-07-22T08:15:43;20.00;99.90
17565;DHT22;62994;52.126;5.596;2023-07-22T08:18:10;20.10;99.90
17565;DHT22;62994;52.126;5.596;2023-07-22T08:20:37;20.10;99.90
17565;DHT22;62994;52.126;5.596;2023-07-22T08:23:12;20.20;99.90
17565;DHT22;62994;52.126;5.596;2023-07-22T08:25:45;20.30;99.90
17565;DHT22;62994;52.126;5.596;2023-07-22T08:28:14;20.40;99.90
17565;DHT22;62994;52.126;5.596;2023-07-22T08:30:43;20.40;99.90
17565;DHT22;62994;52.126;5.596;2023-07-22T08:33:11;20.50;99.90
17565;DHT22;62994;52.126;5.596;2023-07-22T08:35:40;20.60;99.90
17565;DHT22;62994;52.126;5.596;2023-07-22T08:38:11;20.60;99.90
17565;DHT22;62994;52.126;5.596;2023-07-22T08:40:39;20.70;99.90
17565;DHT22;62994;52.126;5.596;2023-07-22T08:43:09;20.80;99.90
17565;DHT22;62994;52.126;5.596;2023-07-22T08:45:39;20.80;99.90
17565;DHT22;62994;52.126;5.596;2023-07-22T08:48:09;20.90;99.90
17565;DHT22;62994;52.126;5.596;2023-07-22T08:50:48;20.90;99.90
17565;DHT22;62994;52.126;5.596;2023-07-22T08:53:17;20.90;99.90
17565;DHT22;62994;52.126;5.596;2023-07-22T08:55:52;20.90;99.90
17565;DHT22;62994;52.126;5.596;2023-07-22T08:58:32;21.00;99.90
17565;DHT22;62994;52.126;5.596;2023-07-22T09:01:02;21.10;99.90
17565;DHT22;62994;52.126;5.596;2023-07-22T09:03:30;21.20;99.90
17565;DHT22;62994;52.126;5.596;2023-07-22T09:06:07;21.20;99.90
17565;DHT22;62994;52.126;5.596;2023-07-22T09:08:43;21.30;99.90
17565;DHT22;62994;52.126;5.596;2023-07-22T09:11:12;21.40;99.90
17565;DHT22;62994;52.126;5.596;2023-07-22T09:13:54;21.50;99.90
17565;DHT22;62994;52.126;5.596;2023-07-22T09:16:47;21.60;99.90
17565;DHT22;62994;52.126;5.596;2023-07-22T09:19:27;21.60;99.90
17565;DHT22;62994;52.126;5.596;2023-07-22T09:22:01;21.60;99.90
17565;DHT22;62994;52.126;5.596;2023-07-22T09:24:32;21.60;99.90
17565;DHT22;62994;52.126;5.596;2023-07-22T09:27:01;21.60;99.90
17565;DHT22;62994;52.126;5.596;2023-07-22T09:29:40;21.60;99.90
17565;DHT22;62994;52.126;5.596;2023-07-22T09:32:09;21.70;99.90
17565;DHT22;62994;52.126;5.596;2023-07-22T09:34:49;21.70;99.90
17565;DHT22;62994;52.126;5.596;2023-07-22T09:37:36;21.70;99.90
17565;DHT22;62994;52.126;5.596;2023-07-22T09:40:24;21.70;99.90
17565;DHT22;62994;52.126;5.596;2023-07-22T09:42:53;21.80;99.90
17565;DHT22;62994;52.126;5.596;2023-07-22T09:45:23;21.70;99.90
17565;DHT22;62994;52.126;5.596;2023-07-22T09:47:53;21.60;99.90
17565;DHT22;62994;52.126;5.596;2023-07-22T09:50:27;21.50;99.90
17565;DHT22;62994;52.126;5.596;2023-07-22T09:52:55;21.50;99.90
17565;DHT22;62994;52.126;5.596;2023-07-22T09:55:25;21.70;99.90
17565;DHT22;62994;52.126;5.596;2023-07-22T09:57:59;21.70;99.90
17565;DHT22;62994;52.126;5.596;2023-07-22T10:00:32;21.70;99.90
17565;DHT22;62994;52.126;5.596;2023-07-22T10:03:16;21.70;99.90
17565;DHT22;62994;52.126;5.596;2023-07-22T10:05:46;21.70;99.90
17565;DHT22;62994;52.126;5.596;2023-07-22T10:08:19;21.70;99.90
17565;DHT22;62994;52.126;5.596;2023-07-22T10:10:53;21.70;99.90
17565;DHT22;62994;52.126;5.596;2023-07-22T10:13:36;21.70;99.90
17565;DHT22;62994;52.126;5.596;2023-07-22T10:16:10;21.70;99.90
17565;DHT22;62994;52.126;5.596;2023-07-22T10:18:46;21.70;99.90
17565;DHT22;62994;52.126;5.596;2023-07-22T10:21:21;21.60;99.90
17565;DHT22;62994;52.126;5.596;2023-07-22T10:23:53;21.70;99.90
17565;DHT22;62994;52.126;5.596;2023-07-22T10:26:34;21.60;99.90
17565;DHT22;62994;52.126;5.596;2023-07-22T10:29:11;21.60;99.90
17565;DHT22;62994;52.126;5.596;2023-07-22T10:31:42;21.50;99.90
17565;DHT22;62994;52.126;5.596;2023-07-22T10:34:14;21.50;99.90
17565;DHT22;62994;52.126;5.596;2023-07-22T10:36:58;21.50;99.90
17565;DHT22;62994;52.126;5.596;2023-07-22T10:39:31;21.40;99.90
17565;DHT22;62994;52.126;5.596;2023-07-22T10:42:09;21.50;99.90
17565;DHT22;62994;52.126;5.596;2023-07-22T10:44:41;21.50;99.90
17565;DHT22;62994;52.126;5.596;2023-07-22T10:47:09;21.60;99.90
17565;DHT22;62994;52.126;5.596;2023-07-22T10:49:48;21.70;99.90
17565;DHT22;62994;52.126;5.596;2023-07-22T10:52:43;21.80;99.90
17565;DHT22;62994;52.126;5.596;2023-07-22T10:55:21;21.80;99.90
17565;DHT22;62994;52.126;5.596;2023-07-22T10:58:05;21.90;99.90
17565;DHT22;62994;52.126;5.596;2023-07-22T11:00:33;22.10;99.90
17565;DHT22;62994;52.126;5.596;2023-07-22T11:03:10;22.10;99.90
17565;DHT22;62994;52.126;5.596;2023-07-22T11:05:50;22.30;99.90
17565;DHT22;62994;52.126;5.596;2023-07-22T11:08:41;22.40;99.90
17565;DHT22;62994;52.126;5.596;2023-07-22T11:11:15;22.50;99.90
17565;DHT22;62994;52.126;5.596;2023-07-22T11:13:53;22.50;99.90
17565;DHT22;62994;52.126;5.596;2023-07-22T11:16:45;22.60;99.90
17565;DHT22;62994;52.126;5.596;2023-07-22T11:19:18;22.60;99.90
17565;DHT22;62994;52.126;5.596;2023-07-22T11:21:59;22.50;99.90
17565;DHT22;62994;52.126;5.596;2023-07-22T11:24:40;22.50;99.90
17565;DHT22;62994;52.126;5.596;2023-07-22T11:27:08;22.40;99.90
17565;DHT22;62994;52.126;5.596;2023-07-22T11:29:45;22.40;99.90
17565;DHT22;62994;52.126;5.596;2023-07-22T11:32:26;22.40;99.90
17565;DHT22;62994;52.126;5.596;2023-07-22T11:35:01;22.40;99.90
17565;DHT22;62994;52.126;5.596;2023-07-22T11:37:32;22.50;99.90
17565;DHT22;62994;52.126;5.596;2023-07-22T11:40:00;22.40;99.90
17565;DHT22;62994;52.126;5.596;2023-07-22T11:42:39;22.50;99.90
17565;DHT22;62994;52.126;5.596;2023-07-22T11:45:11;22.50;99.90
17565;DHT22;62994;52.126;5.596;2023-07-22T11:47:40;22.60;99.90
17565;DHT22;62994;52.126;5.596;2023-07-22T11:50:31;22.60;99.90
17565;DHT22;62994;52.126;5.596;2023-07-22T11:53:06;22.70;99.90
17565;DHT22;62994;52.126;5.596;2023-07-22T11:58:39;22.80;99.90
17565;DHT22;62994;52.126;5.596;2023-07-22T12:01:10;22.80;99.90
17565;DHT22;62994;52.126;5.596;2023-07-22T12:03:55;22.90;99.90
17565;DHT22;62994;52.126;5.596;2023-07-22T12:06:27;22.80;99.90
17565;DHT22;62994;52.126;5.596;2023-07-22T12:09:02;22.80;99.90
17565;DHT22;62994;52.126;5.596;2023-07-22T12:11:35;22.80;99.90
17565;DHT22;62994;52.126;5.596;2023-07-22T12:14:18;22.80;99.90
17565;DHT22;62994;52.126;5.596;2023-07-22T12:16:52;22.70;99.90
17565;DHT22;62994;52.126;5.596;2023-07-22T12:19:23;22.70;99.90
17565;DHT22;62994;52.126;5.596;2023-07-22T12:21:55;22.60;99.90
17565;DHT22;62994;52.126;5.596;2023-07-22T12:24:27;22.50;99.90
17565;DHT22;62994;52.126;5.596;2023-07-22T12:27:05;22.40;99.90
17565;DHT22;62994;52.126;5.596;2023-07-22T12:29:40;22.40;99.90
17565;DHT22;62994;52.126;5.596;2023-07-22T12:32:15;22.30;99.90
17565;DHT22;62994;52.126;5.596;2023-07-22T12:37:36;22.00;99.90
17565;DHT22;62994;52.126;5.596;2023-07-22T12:40:14;21.80;99.90
17565;DHT22;62994;52.126;5.596;2023-07-22T12:43:07;21.70;99.90
17565;DHT22;62994;52.126;5.596;2023-07-22T12:45:45;21.60;99.90
17565;DHT22;62994;52.126;5.596;2023-07-22T12:48:33;21.50;99.90
17565;DHT22;62994;52.126;5.596;2023-07-22T12:51:04;21.40;99.90
17565;DHT22;62994;52.126;5.596;2023-07-22T12:56:26;21.30;99.90
17565;DHT22;62994;52.126;5.596;2023-07-22T12:58:53;21.30;99.90
17565;DHT22;62994;52.126;5.596;2023-07-22T13:01:28;21.40;99.90
17565;DHT22;62994;52.126;5.596;2023-07-22T13:03:58;21.40;99.90
17565;DHT22;62994;52.126;5.596;2023-07-22T13:06:43;21.40;99.90
17565;DHT22;62994;52.126;5.596;2023-07-22T13:09:21;21.50;99.90
17565;DHT22;62994;52.126;5.596;2023-07-22T13:12:08;21.50;99.90
17565;DHT22;62994;52.126;5.596;2023-07-22T13:14:41;21.50;99.90
17565;DHT22;62994;52.126;5.596;2023-07-22T13:17:22;21.50;99.90
17565;DHT22;62994;52.126;5.596;2023-07-22T13:19:52;21.50;99.90
17565;DHT22;62994;52.126;5.596;2023-07-22T13:22:33;21.60;99.90
17565;DHT22;62994;52.126;5.596;2023-07-22T13:28:03;21.60;99.90
17565;DHT22;62994;52.126;5.596;2023-07-22T13:30:36;21.70;99.90
17565;DHT22;62994;52.126;5.596;2023-07-22T13:33:04;21.70;99.90
17565;DHT22;62994;52.126;5.596;2023-07-22T13:35:40;21.70;99.90
17565;DHT22;62994;52.126;5.596;2023-07-22T13:38:13;21.60;99.90
17565;DHT22;62994;52.126;5.596;2023-07-22T13:41:00;21.60;99.90
17565;DHT22;62994;52.126;5.596;2023-07-22T13:43:34;21.60;99.90
17565;DHT22;62994;52.126;5.596;2023-07-22T13:46:09;21.50;99.90
17565;DHT22;62994;52.126;5.596;2023-07-22T13:48:43;21.50;99.90
17565;DHT22;62994;52.126;5.596;2023-07-22T13:51:26;21.50;99.90
17565;DHT22;62994;52.126;5.596;2023-07-22T13:54:06;21.50;99.90
17565;DHT22;62994;52.126;5.596;2023-07-22T13:56:39;21.40;99.90
17565;DHT22;62994;52.126;5.596;2023-07-22T13:59:19;21.30;99.90
17565;DHT22;62994;52.126;5.596;2023-07-22T14:02:04;21.30;99.90
17565;DHT22;62994;52.126;5.596;2023-07-22T14:04:39;21.10;99.90
17565;DHT22;62994;52.126;5.596;2023-07-22T14:07:19;21.10;99.90
17565;DHT22;62994;52.126;5.596;2023-07-22T14:09:52;21.10;99.90
17565;DHT22;62994;52.126;5.596;2023-07-22T14:12:27;21.00;99.90
17565;DHT22;62994;52.126;5.596;2023-07-22T14:15:08;21.00;99.90
17565;DHT22;62994;52.126;5.596;2023-07-22T14:17:52;21.10;99.90
17565;DHT22;62994;52.126;5.596;2023-07-22T14:20:28;21.00;99.90
17565;DHT22;62994;52.126;5.596;2023-07-22T14:23:02;21.10;99.90
17565;DHT22;62994;52.126;5.596;2023-07-22T14:25:45;21.10;99.90
17565;DHT22;62994;52.126;5.596;2023-07-22T14:28:17;21.10;99.90
17565;DHT22;62994;52.126;5.596;2023-07-22T14:30:49;21.10;99.90
17565;DHT22;62994;52.126;5.596;2023-07-22T14:33:32;21.20;99.90
17565;DHT22;62994;52.126;5.596;2023-07-22T14:36:20;21.20;99.90
17565;DHT22;62994;52.126;5.596;2023-07-22T14:38:48;21.20;99.90
17565;DHT22;62994;52.126;5.596;2023-07-22T14:41:18;21.20;99.90
17565;DHT22;62994;52.126;5.596;2023-07-22T14:43:46;21.20;99.90
17565;DHT22;62994;52.126;5.596;2023-07-22T14:46:14;21.20;99.90
17565;DHT22;62994;52.126;5.596;2023-07-22T14:48:46;21.30;99.90
17565;DHT22;62994;52.126;5.596;2023-07-22T14:51:13;21.20;99.90
17565;DHT22;62994;52.126;5.596;2023-07-22T14:53:40;21.30;99.90
17565;DHT22;62994;52.126;5.596;2023-07-22T14:56:12;21.30;99.90
17565;DHT22;62994;52.126;5.596;2023-07-22T14:58:39;21.30;99.90
17565;DHT22;62994;52.126;5.596;2023-07-22T15:01:07;21.30;99.90
17565;DHT22;62994;52.126;5.596;2023-07-22T15:03:41;21.30;99.90
17565;DHT22;62994;52.126;5.596;2023-07-22T15:06:09;21.30;99.90
17565;DHT22;62994;52.126;5.596;2023-07-22T15:08:41;21.30;99.90
17565;DHT22;62994;52.126;5.596;2023-07-22T15:11:13;21.40;99.90
17565;DHT22;62994;52.126;5.596;2023-07-22T15:13:40;21.40;99.90
17565;DHT22;62994;52.126;5.596;2023-07-22T15:16:07;21.40;99.90
17565;DHT22;62994;52.126;5.596;2023-07-22T15:18:46;21.40;99.90
17565;DHT22;62994;52.126;5.596;2023-07-22T15:21:25;21.50;99.90
17565;DHT22;62994;52.126;5.596;2023-07-22T15:23:54;21.50;99.90
17565;DHT22;62994;52.126;5.596;2023-07-22T15:26:21;21.40;99.90
17565;DHT22;62994;52.126;5.596;2023-07-22T15:28:48;21.40;99.90
17565;DHT22;62994;52.126;5.596;2023-07-22T15:31:27;21.40;99.90
17565;DHT22;62994;52.126;5.596;2023-07-22T15:34:00;21.40;99.90
17565;DHT22;62994;52.126;5.596;2023-07-22T15:36:27;21.40;99.90
17565;DHT22;62994;52.126;5.596;2023-07-22T15:39:01;21.40;99.90
17565;DHT22;62994;52.126;5.596;2023-07-22T15:41:28;21.40;99.90
17565;DHT22;62994;52.126;5.596;2023-07-22T15:44:03;21.40;99.90
17565;DHT22;62994;52.126;5.596;2023-07-22T15:46:32;21.50;99.90
17565;DHT22;62994;52.126;5.596;2023-07-22T15:49:04;21.60;99.90
17565;DHT22;62994;52.126;5.596;2023-07-22T15:51:31;21.50;99.90
17565;DHT22;62994;52.126;5.596;2023-07-22T15:54:00;21.50;99.90
17565;DHT22;62994;52.126;5.596;2023-07-22T15:56:27;21.50;99.90
17565;DHT22;62994;52.126;5.596;2023-07-22T15:58:54;21.40;99.90
17565;DHT22;62994;52.126;5.596;2023-07-22T16:01:22;21.40;99.90
17565;DHT22;62994;52.126;5.596;2023-07-22T16:03:49;21.40;99.90
17565;DHT22;62994;52.126;5.596;2023-07-22T16:06:18;21.40;99.90
17565;DHT22;62994;52.126;5.596;2023-07-22T16:08:46;21.40;99.90
17565;DHT22;62994;52.126;5.596;2023-07-22T16:11:14;21.40;99.90
17565;DHT22;62994;52.126;5.596;2023-07-22T16:13:44;21.30;99.90
17565;DHT22;62994;52.126;5.596;2023-07-22T16:16:11;21.30;99.90
17565;DHT22;62994;52.126;5.596;2023-07-22T16:18:38;21.30;99.90
17565;DHT22;62994;52.126;5.596;2023-07-22T16:21:08;21.40;99.90